Time;durP1;ratioP1;P1;durP2;ratioP2;P2;SDS_P1;SDS_P2;PMS_P1;PMS_P2;Temp;Humidity;BMP_temperature;BMP_pressure;BME280_temperature;BME280_humidity;BME280_pressure;Samples;Min_cycle;Max_cycle;Signal;HPM_P1;HPM_P2
2022/10/16 00:01:50;;;;;;;15.87;3.30;;;13.20;99.90;;;13.95;100.00;97900.06;5002434;28;20491;-85
2022/10/16 00:04:19;;;;;;;10.40;2.90;;;13.20;99.90;;;13.92;100.00;97900.44;5002995;28;21280;-87
2022/10/16 00:06:47;;;;;;;7.93;3.00;;;13.20;99.90;;;13.91;100.00;97904.94;5003825;28;21211;-87
2022/10/16 00:09:16;;;;;;;5.60;3.10;;;13.20;99.90;;;13.91;100.00;97901.47;5003852;28;20498;-86
2022/10/16 00:11:45;;;;;;;15.10;4.27;;;13.10;99.90;;;13.90;100.00;97905.13;5005796;28;20467;-87
2022/10/16 00:14:17;;;;;;;3.53;2.80;;;13.10;99.90;;;13.87;100.00;97900.28;5004841;28;20810;-87
2022/10/16 00:16:46;;;;;;;2.90;2.50;;;13.10;99.90;;;13.86;100.00;97904.75;5005369;28;20533;-87
2022/10/16 00:19:17;;;;;;;17.37;3.30;;;13.10;99.90;;;13.87;100.00;97898.47;5005577;28;21043;-88
2022/10/16 00:21:46;;;;;;;4.83;3.53;;;13.10;99.90;;;13.89;100.00;97906.94;5005763;28;20467;-88
2022/10/16 00:24:15;;;;;;;13.17;3.20;;;13.10;99.90;;;13.88;100.00;97892.19;5004416;28;20554;-88
2022/10/16 00:26:43;;;;;;;4.40;3.67;;;13.10;99.90;;;13.89;100.00;97906.13;5004782;28;20455;-87
2022/10/16 00:29:12;;;;;;;17.90;3.40;;;13.10;99.90;;;13.88;100.00;97907.94;5004649;28;20483;-86
2022/10/16 00:31:41;;;;;;;22.13;4.17;;;13.10;99.90;;;13.88;100.00;97899.28;5002516;28;20538;-87
2022/10/16 00:34:10;;;;;;;10.53;3.40;;;13.10;99.90;;;13.89;100.00;97893.00;5003457;28;20530;-88
2022/10/16 00:36:40;;;;;;;7.17;3.67;;;13.10;99.90;;;13.88;100.00;97886.91;5004276;28;20503;-88
2022/10/16 00:39:09;;;;;;;4.20;2.93;;;13.10;99.90;;;13.88;100.00;97894.03;5004812;28;20603;-87
2022/10/16 00:41:38;;;;;;;24.83;3.93;;;13.10;99.90;;;13.86;100.00;97896.84;5003844;28;20490;-87
2022/10/16 00:44:45;;;;;;;6.00;2.60;;;13.10;99.90;;;13.86;100.00;97899.47;5002864;28;20455;-87
2022/10/16 00:47:22;;;;;;;12.67;3.10;;;13.10;99.90;;;13.87;100.00;97895.03;5004023;28;20577;-87
2022/10/16 00:49:55;;;;;;;11.43;3.60;;;13.20;99.90;;;13.85;100.00;97899.72;5002186;28;21263;-87
2022/10/16 00:52:26;;;;;;;2.63;2.40;;;13.10;99.90;;;13.85;100.00;97910.22;5002873;28;20573;-87
2022/10/16 00:54:56;;;;;;;19.40;3.30;;;13.10;99.90;;;13.86;100.00;97911.81;5003496;28;20968;-87
2022/10/16 00:57:26;;;;;;;7.47;3.57;;;13.10;99.90;;;13.86;100.00;97911.81;5004687;28;20552;-87
2022/10/16 00:59:56;;;;;;;13.40;3.37;;;13.10;99.90;;;13.85;100.00;97918.88;5002315;28;20513;-87
2022/10/16 01:02:25;;;;;;;6.67;3.17;;;13.10;99.90;;;13.86;100.00;97917.06;5001027;28;20505;-87
2022/10/16 01:04:55;;;;;;;8.83;3.17;;;13.10;99.90;;;13.86;100.00;97919.69;5001714;28;20533;-87
2022/10/16 01:07:42;;;;;;;20.07;3.60;;;13.10;99.90;;;13.86;100.00;97914.44;5004285;28;20523;-87
2022/10/16 01:10:25;;;;;;;12.83;3.00;;;13.00;99.90;;;13.86;100.00;97911.81;5002577;28;20534;-87
2022/10/16 01:13:02;;;;;;;9.93;3.80;;;13.10;99.90;;;13.85;100.00;97920.75;5004367;28;20593;-87
2022/10/16 01:15:37;;;;;;;13.53;2.93;;;13.10;99.90;;;13.88;100.00;97930.81;5002183;28;20558;-87
2022/10/16 01:18:15;;;;;;;6.60;3.07;;;13.10;99.90;;;13.88;100.00;97930.81;5002688;28;20516;-88
2022/10/16 01:20:54;;;;;;;4.77;3.57;;;13.10;99.90;;;13.89;100.00;97929.78;5002293;28;20529;-87
2022/10/16 01:23:50;;;;;;;12.97;3.60;;;13.20;99.90;;;13.88;100.00;97939.50;5003912;28;20467;-87
2022/10/16 01:26:46;;;;;;;8.63;3.20;;;13.20;99.90;;;13.88;100.00;97947.38;5002544;28;20476;-86
2022/10/16 01:29:22;;;;;;;3.73;2.80;;;13.10;99.90;;;13.89;100.00;97930.59;5003265;28;20482;-86
2022/10/16 01:32:00;;;;;;;8.23;3.67;;;13.30;99.90;;;13.89;100.00;97948.19;5000082;28;20467;-87
2022/10/16 01:34:39;;;;;;;9.73;3.17;;;13.20;99.90;;;13.88;100.00;97946.59;5002122;28;20561;-86
2022/10/16 01:37:16;;;;;;;3.80;3.00;;;13.20;99.90;;;13.88;100.00;97946.59;5000288;28;20466;-86
2022/10/16 01:39:51;;;;;;;7.20;3.37;;;13.20;99.90;;;13.89;100.00;97963.97;5002306;28;20589;-85
2022/10/16 01:42:25;;;;;;;5.43;2.77;;;13.20;99.90;;;13.88;100.00;97965.00;5005238;28;20474;-86
2022/10/16 01:44:59;;;;;;;4.00;2.80;;;13.20;99.90;;;13.89;100.00;97958.72;5000936;28;20497;-88
2022/10/16 01:47:32;;;;;;;24.80;3.63;;;13.20;99.90;;;13.87;100.00;97951.03;5001914;28;20474;-88
2022/10/16 01:50:05;;;;;;;13.20;3.47;;;13.20;99.90;;;13.89;100.00;97958.72;5001620;28;20458;-86
2022/10/16 01:52:41;;;;;;;10.73;3.30;;;13.20;99.90;;;13.90;100.00;97960.31;5002213;28;20487;-87
2022/10/16 01:55:13;;;;;;;16.20;3.67;;;13.20;99.90;;;13.91;100.00;97951.44;5001114;28;20504;-87
2022/10/16 01:57:50;;;;;;;7.63;3.10;;;13.20;99.90;;;13.91;100.00;97952.25;5003602;28;20462;-87
2022/10/16 02:00:24;;;;;;;7.53;2.73;;;13.20;99.90;;;13.92;100.00;97940.69;5000356;28;20499;-87
2022/10/16 02:02:59;;;;;;;5.53;3.10;;;13.20;99.90;;;13.90;100.00;97937.47;5004053;28;20548;-86
2022/10/16 02:05:35;;;;;;;12.30;2.97;;;13.20;99.90;;;13.92;100.00;97943.31;5002136;28;20550;-86
2022/10/16 02:08:05;;;;;;;6.70;2.40;;;13.20;99.90;;;13.92;100.00;97947.75;5002417;28;20477;-87
2022/10/16 02:10:36;;;;;;;14.80;2.40;;;13.30;99.90;;;13.94;100.00;97943.13;5002933;28;21089;-87
2022/10/16 02:13:11;;;;;;;6.37;2.03;;;13.20;99.90;;;13.93;100.00;97955.47;5001269;28;20540;-86
2022/10/16 02:15:42;;;;;;;23.53;2.27;;;13.20;99.90;;;13.94;100.00;97958.91;5003458;28;20542;-86
2022/10/16 02:18:11;;;;;;;3.60;2.17;;;13.20;99.90;;;13.95;100.00;97963.94;5002498;28;20453;-87
2022/10/16 02:20:52;;;;;;;10.50;2.50;;;13.20;99.90;;;13.98;100.00;97958.28;5006271;28;20573;-87
2022/10/16 02:23:34;;;;;;;22.40;2.80;;;13.20;99.90;;;13.98;100.00;97960.91;5003354;28;20471;-87
2022/10/16 02:26:10;;;;;;;4.73;1.90;;;13.30;99.90;;;13.99;100.00;97957.22;5003607;28;20482;-86
2022/10/16 02:28:48;;;;;;;12.13;2.30;;;13.30;99.90;;;14.01;100.00;97957.03;5005375;28;20450;-86
2022/10/16 02:31:27;;;;;;;4.70;2.07;;;13.30;99.90;;;14.03;100.00;97968.13;5002309;28;20528;-87
2022/10/16 02:34:00;;;;;;;6.10;2.47;;;13.30;99.90;;;14.04;100.00;97965.31;5000556;28;20805;-87
2022/10/16 02:36:29;;;;;;;21.13;2.43;;;13.30;99.90;;;14.03;100.00;97965.50;5004757;28;20561;-88
2022/10/16 02:39:00;;;;;;;5.00;2.03;;;13.40;99.90;;;14.03;100.00;97966.31;5002486;28;20538;-86
2022/10/16 02:41:29;;;;;;;1.73;1.63;;;13.30;99.90;;;14.03;100.00;97965.50;4999972;28;20459;-87
2022/10/16 02:43:58;;;;;;;5.83;2.00;;;13.30;99.90;;;14.05;100.00;97953.78;5002295;28;20477;-86
2022/10/16 02:46:28;;;;;;;7.93;2.37;;;13.30;99.90;;;14.08;100.00;97947.28;5006153;28;20463;-88
2022/10/16 02:48:57;;;;;;;2.37;2.10;;;13.40;99.90;;;14.09;100.00;97954.16;5002457;28;20955;-87
2022/10/16 02:51:26;;;;;;;7.27;2.33;;;13.40;99.90;;;14.09;100.00;97943.66;5004276;28;20488;-86
2022/10/16 02:53:56;;;;;;;7.33;2.30;;;13.40;99.90;;;14.10;100.00;97956.56;5005292;28;20473;-87
2022/10/16 02:56:25;;;;;;;4.03;1.90;;;13.40;99.90;;;14.11;100.00;97960.81;5003307;28;20510;-87
2022/10/16 02:58:53;;;;;;;5.60;2.13;;;13.40;99.90;;;14.12;100.00;97974.78;5005088;28;20589;-87
2022/10/16 03:01:23;;;;;;;8.00;1.70;;;13.50;99.90;;;14.13;100.00;97973.75;5002182;28;20590;-87
2022/10/16 03:03:54;;;;;;;2.30;2.10;;;13.50;99.90;;;14.14;100.00;97967.47;5002126;28;20468;-87
2022/10/16 03:06:23;;;;;;;2.27;2.07;;;13.50;99.90;;;14.16;100.00;97962.00;5005723;28;20551;-88
2022/10/16 03:08:52;;;;;;;12.60;2.40;;;13.50;99.90;;;14.16;100.00;97970.69;5004113;28;20553;-86
2022/10/16 03:11:22;;;;;;;9.20;2.73;;;13.50;99.90;;;14.18;100.00;97976.56;5003916;28;20463;-87
2022/10/16 03:13:50;;;;;;;7.50;2.20;;;13.50;99.90;;;14.18;100.00;97973.94;5002913;28;20555;-87
2022/10/16 03:16:19;;;;;;;5.00;1.80;;;13.50;99.90;;;14.17;100.00;97974.94;5005007;28;21043;-88
2022/10/16 03:18:50;;;;;;;4.97;2.00;;;13.60;99.90;;;14.19;100.00;97987.88;5006009;28;20526;-87
2022/10/16 03:21:21;;;;;;;2.47;1.87;;;13.50;99.90;;;14.20;100.00;97971.88;4988646;28;20617;-89
2022/10/16 03:23:50;;;;;;;3.90;1.67;;;13.50;99.90;;;14.20;100.00;97971.88;5003929;28;20985;-87
2022/10/16 03:26:19;;;;;;;4.33;2.07;;;13.50;99.90;;;14.21;100.00;97973.50;5005678;28;20567;-86
2022/10/16 03:28:49;;;;;;;7.53;1.60;;;13.60;99.90;;;14.21;100.00;97977.94;5003727;28;20456;-86
2022/10/16 03:31:18;;;;;;;1.63;1.53;;;13.60;99.90;;;14.22;100.00;97975.13;5004216;28;20547;-86
2022/10/16 03:33:48;;;;;;;4.30;1.70;;;13.50;99.90;;;14.22;100.00;97980.38;5003970;28;20455;-87
2022/10/16 03:36:20;;;;;;;2.37;1.60;;;13.50;99.90;;;14.23;100.00;97981.19;5004119;28;20466;-86
2022/10/16 03:38:49;;;;;;;3.87;1.93;;;13.60;99.90;;;14.23;100.00;97971.44;5001841;28;20456;-87
2022/10/16 03:41:18;;;;;;;2.60;2.13;;;13.50;99.90;;;14.24;100.00;97977.53;5003517;28;20506;-86
2022/10/16 03:43:48;;;;;;;13.30;2.60;;;13.60;99.90;;;14.25;100.00;97968.63;5004277;28;20550;-87
2022/10/16 03:46:17;;;;;;;5.70;2.53;;;13.50;99.90;;;14.25;100.00;97969.44;5004135;28;21085;-86
2022/10/16 03:48:47;;;;;;;4.63;2.07;;;13.50;99.90;;;14.25;100.00;97968.63;5003020;28;20502;-88
2022/10/16 03:51:16;;;;;;;9.10;2.10;;;13.50;99.90;;;14.23;100.00;97970.69;5006410;28;21028;-88
2022/10/16 03:53:46;;;;;;;17.23;1.97;;;13.50;99.90;;;14.24;100.00;97973.06;5003590;28;20534;-88
2022/10/16 03:56:15;;;;;;;6.37;1.87;;;13.50;99.90;;;14.26;100.00;97981.59;5005822;28;20979;-89
2022/10/16 03:58:43;;;;;;;4.40;1.77;;;13.60;99.90;;;14.25;100.00;97972.06;5004327;28;20641;-87
2022/10/16 04:01:13;;;;;;;3.43;1.73;;;13.60;99.90;;;14.27;100.00;97972.66;5001158;28;20585;-87
2022/10/16 04:03:41;;;;;;;276.97;63.17;;;13.60;99.90;;;14.27;100.00;97967.38;5005485;28;20597;-85
2022/10/16 04:06:11;;;;;;;13.13;8.10;;;13.60;99.90;;;14.27;100.00;97967.38;5006759;28;21049;-88
2022/10/16 04:08:39;;;;;;;13.40;3.40;;;13.60;99.90;;;14.26;100.00;97976.31;5003859;28;20495;-86
2022/10/16 04:11:10;;;;;;;7.43;2.57;;;13.50;99.90;;;14.26;100.00;97981.59;5002688;28;20468;-87
2022/10/16 04:13:39;;;;;;;4.20;2.00;;;13.50;99.90;;;14.27;100.00;97977.91;5002467;28;20525;-86
2022/10/16 04:16:07;;;;;;;10.73;2.10;;;13.50;99.90;;;14.28;100.00;97979.53;5002335;28;20718;-86
2022/10/16 04:18:37;;;;;;;14.30;2.27;;;13.50;99.90;;;14.27;100.00;97982.34;5001101;28;20542;-85
2022/10/16 04:21:07;;;;;;;1.83;1.73;;;13.50;99.90;;;14.28;100.00;97997.13;5001257;28;20513;-86
2022/10/16 04:23:36;;;;;;;1.60;1.47;;;13.50;99.90;;;14.29;100.00;97999.56;5002093;28;21179;-87
2022/10/16 04:26:05;;;;;;;3.23;1.80;;;13.60;99.90;;;14.30;100.00;97998.53;5001508;28;20505;-87
2022/10/16 04:28:35;;;;;;;8.93;2.33;;;13.60;99.90;;;14.31;100.00;97994.88;5005556;28;20882;-87
2022/10/16 04:31:05;;;;;;;13.13;2.10;;;13.60;99.90;;;14.32;100.00;97996.50;5002459;28;20471;-86
2022/10/16 04:33:35;;;;;;;13.80;2.87;;;13.60;99.90;;;14.33;100.00;97998.13;5003428;28;21259;-86
2022/10/16 04:36:05;;;;;;;20.10;7.30;;;13.70;99.90;;;14.34;100.00;97997.13;5004159;28;20463;-87
2022/10/16 04:38:34;;;;;;;11.93;3.67;;;13.60;99.90;;;14.35;100.00;97985.59;5002206;28;20506;-84
2022/10/16 04:41:03;;;;;;;9.60;4.50;;;13.70;99.90;;;14.35;100.00;97990.84;5002057;28;20498;-87
2022/10/16 04:43:35;;;;;;;4.33;2.47;;;13.70;99.90;;;14.35;100.00;97995.31;5004996;28;20463;-88
2022/10/16 04:46:05;;;;;;;6.80;2.43;;;13.70;99.90;;;14.36;100.00;97997.72;5001633;28;20450;-87
2022/10/16 04:48:37;;;;;;;2.83;2.07;;;13.70;99.90;;;14.36;100.00;97992.47;5002070;28;20558;-88
2022/10/16 04:51:06;;;;;;;11.43;2.40;;;13.70;99.90;;;14.39;100.00;98007.03;5000861;28;20488;-88
2022/10/16 04:53:35;;;;;;;10.80;2.60;;;13.70;99.90;;;14.38;100.00;98005.41;5004438;28;20447;-87
2022/10/16 04:56:04;;;;;;;5.63;2.10;;;13.70;99.90;;;14.39;100.00;98010.47;5005226;28;21173;-86
2022/10/16 04:58:39;;;;;;;3.30;2.60;;;13.80;99.90;;;14.37;100.00;98017.75;5004850;28;20452;-87
2022/10/16 05:01:09;;;;;;;4.90;2.20;;;13.70;99.90;;;14.37;100.00;98017.75;5001135;28;20996;-87
2022/10/16 05:03:39;;;;;;;9.80;2.70;;;13.70;99.90;;;14.38;100.00;98015.91;4999188;28;20450;-87
2022/10/16 05:06:09;;;;;;;3.00;2.13;;;13.70;99.90;;;14.38;100.00;98014.09;4998749;28;20961;-86
2022/10/16 05:08:38;;;;;;;9.20;2.63;;;13.70;99.90;;;14.38;100.00;98019.38;5001583;28;20470;-86
2022/10/16 05:11:08;;;;;;;11.83;2.33;;;13.70;99.90;;;14.39;100.00;98031.50;5003030;28;20553;-86
2022/10/16 05:13:38;;;;;;;9.00;2.37;;;13.70;99.90;;;14.40;100.00;98038.38;5000873;28;20459;-86
2022/10/16 05:16:07;;;;;;;3.23;2.10;;;13.70;99.90;;;14.39;100.00;98031.50;5000656;28;20486;-86
2022/10/16 05:18:36;;;;;;;3.93;3.03;;;13.70;99.90;;;14.39;100.00;98034.13;4999865;28;20483;-85
2022/10/16 05:21:05;;;;;;;13.50;2.40;;;13.70;99.90;;;14.41;100.00;98037.34;5000092;28;20582;-87
2022/10/16 05:23:37;;;;;;;4.43;1.93;;;13.70;99.90;;;14.42;100.00;98030.28;4999501;28;20470;-85
2022/10/16 05:26:06;;;;;;;10.80;2.80;;;13.80;99.90;;;14.42;100.00;98032.91;5000148;28;20471;-85
2022/10/16 05:28:38;;;;;;;3.47;2.90;;;13.70;99.90;;;14.42;100.00;98028.44;4998145;28;20562;-85
2022/10/16 05:31:08;;;;;;;7.97;2.50;;;13.70;99.90;;;14.43;100.00;98030.06;5000240;28;20988;-87
2022/10/16 05:33:38;;;;;;;7.03;2.97;;;13.70;99.90;;;14.43;100.00;98027.44;5000181;28;20559;-83
2022/10/16 05:36:10;;;;;;;3.70;2.70;;;13.70;99.90;;;14.43;100.00;98030.06;5003300;28;20937;-87
2022/10/16 05:38:38;;;;;;;5.87;2.83;;;13.70;99.90;;;14.45;100.00;98024.59;5000732;28;20933;-86
2022/10/16 05:41:07;;;;;;;9.23;2.67;;;13.80;99.90;;;14.44;100.00;98034.28;5003382;28;20995;-83
2022/10/16 05:43:38;;;;;;;11.60;4.37;;;13.70;99.90;;;14.44;100.00;98031.66;5003434;28;20471;-87
2022/10/16 05:46:07;;;;;;;6.33;3.23;;;13.70;99.90;;;14.45;100.00;98027.22;5000926;28;20477;-86
2022/10/16 05:48:37;;;;;;;7.43;2.50;;;13.80;99.90;;;14.45;100.00;98024.59;4999061;28;20562;-87
2022/10/16 05:51:10;;;;;;;11.43;3.07;;;13.80;99.90;;;14.44;100.00;98031.66;5001186;28;20516;-87
2022/10/16 05:53:44;;;;;;;10.83;2.67;;;13.70;99.90;;;14.42;100.00;98031.09;5003016;28;20522;-87
2022/10/16 05:56:13;;;;;;;9.20;3.10;;;13.70;99.90;;;14.44;100.00;98044.81;5018232;28;20463;-87
2022/10/16 05:58:46;;;;;;;5.17;3.60;;;13.70;99.90;;;14.43;100.00;98034.53;5001221;28;20491;-86
2022/10/16 06:01:17;;;;;;;7.00;3.00;;;13.70;99.90;;;14.43;100.00;98045.84;5002889;28;20493;-86
2022/10/16 06:03:46;;;;;;;3.20;2.90;;;13.70;99.90;;;14.45;100.00;98048.25;5001911;28;20474;-86
2022/10/16 06:06:18;;;;;;;11.33;3.17;;;13.80;99.90;;;14.45;100.00;98050.91;5000195;28;20549;-86
2022/10/16 06:08:48;;;;;;;5.07;2.90;;;13.70;99.90;;;14.44;100.00;98057.97;4998864;28;20498;-86
2022/10/16 06:11:20;;;;;;;5.63;3.20;;;13.70;99.90;;;14.45;100.00;98056.16;4999633;28;20478;-87
2022/10/16 06:13:54;;;;;;;4.83;3.33;;;13.80;99.90;;;14.45;100.00;98059.59;5002207;28;20491;-87
2022/10/16 06:16:23;;;;;;;4.07;3.00;;;13.80;99.90;;;14.47;100.00;98064.66;5000947;28;20506;-87
2022/10/16 06:18:53;;;;;;;10.17;3.23;;;13.80;99.90;;;14.49;100.00;98062.63;5001480;28;20511;-87
2022/10/16 06:21:26;;;;;;;3.63;2.60;;;13.80;99.90;;;14.49;100.00;98062.63;5006075;28;20495;-88
2022/10/16 06:23:56;;;;;;;4.37;3.00;;;13.80;99.90;;;14.49;100.00;98059.97;5004996;28;20471;-89
2022/10/16 06:26:31;;;;;;;6.70;2.97;;;13.80;99.90;;;14.49;100.00;98068.69;5007776;28;20474;-88
2022/10/16 06:29:02;;;;;;;10.50;3.60;;;13.80;99.90;;;14.50;100.00;98070.31;5005148;28;20499;-88
2022/10/16 06:31:33;;;;;;;5.77;2.97;;;13.80;99.90;;;14.52;100.00;98075.34;5005829;28;20492;-89
2022/10/16 06:34:04;;;;;;;10.73;3.53;;;13.80;99.90;;;14.50;100.00;98072.94;5003596;28;20529;-88
2022/10/16 06:36:45;;;;;;;9.03;4.53;;;13.80;99.90;;;14.52;100.00;98065.63;5007884;28;20496;-89
2022/10/16 06:39:14;;;;;;;23.67;3.80;;;13.90;99.90;;;14.51;100.00;98074.53;5004862;28;20498;-85
2022/10/16 06:41:44;;;;;;;10.17;3.57;;;13.80;99.90;;;14.51;100.00;98074.53;5003470;28;20540;-86
2022/10/16 06:44:14;;;;;;;7.57;3.60;;;13.80;99.90;;;14.53;100.00;98088.31;5004792;28;21165;-86
2022/10/16 06:46:43;;;;;;;5.93;3.27;;;13.80;99.90;;;14.54;100.00;98086.50;5003574;28;20467;-88
2022/10/16 06:49:12;;;;;;;8.43;4.30;;;13.80;99.90;;;14.54;100.00;98089.13;5005874;28;21218;-86
2022/10/16 06:51:41;;;;;;;8.97;4.77;;;13.90;99.90;;;14.56;100.00;98095.78;5003601;28;20506;-87
2022/10/16 06:54:11;;;;;;;7.10;3.97;;;13.90;99.90;;;14.56;100.00;98098.41;5002246;28;20570;-87
2022/10/16 06:56:40;;;;;;;15.50;3.73;;;13.90;99.90;;;14.56;100.00;98103.66;5010827;28;20565;-90
2022/10/16 06:59:08;;;;;;;13.23;3.70;;;13.90;99.90;;;14.57;100.00;98105.28;5008428;28;20582;-90
2022/10/16 07:01:38;;;;;;;5.00;3.83;;;13.90;99.90;;;14.58;100.00;98099.00;5004659;28;20492;-87
2022/10/16 07:04:08;;;;;;;8.13;3.67;;;13.90;99.90;;;14.58;100.00;98109.53;5007609;28;20570;-90
2022/10/16 07:06:37;;;;;;;7.00;4.10;;;13.90;99.90;;;14.61;100.00;98117.00;5008081;28;20454;-90
2022/10/16 07:09:09;;;;;;;13.57;3.60;;;13.90;99.90;;;14.60;100.00;98115.41;5006197;28;20871;-82
2022/10/16 07:11:43;;;;;;;17.13;6.10;;;13.90;99.90;;;14.62;100.00;98117.81;5007558;28;20538;-88
2022/10/16 07:14:18;;;;;;;4.47;3.60;;;14.00;99.90;;;14.64;100.00;98128.13;5006907;28;20462;-88
2022/10/16 07:16:49;;;;;;;8.37;4.87;;;13.90;99.90;;;14.64;100.00;98128.94;5008556;28;20900;-88
2022/10/16 07:19:18;;;;;;;6.77;4.30;;;14.00;99.90;;;14.66;100.00;98140.06;5008997;28;20825;-89
2022/10/16 07:21:46;;;;;;;11.43;4.40;;;14.00;99.90;;;14.67;100.00;98135.59;5003928;28;20529;-89
2022/10/16 07:24:17;;;;;;;4.40;3.60;;;14.00;99.90;;;14.69;100.00;98144.91;5009492;28;20463;-90
2022/10/16 07:26:47;;;;;;;4.33;3.90;;;14.00;99.90;;;14.69;100.00;98149.34;5009414;28;20533;-91
2022/10/16 07:29:19;;;;;;;12.40;4.10;;;14.00;99.90;;;14.72;100.00;98159.44;5009892;28;20563;-88
2022/10/16 07:31:50;;;;;;;5.57;3.97;;;14.00;99.90;;;14.74;100.00;98162.69;5000506;28;20513;-81
2022/10/16 07:34:21;;;;;;;7.37;3.53;;;14.10;99.90;;;14.74;100.00;98171.41;5008467;28;20558;-90
2022/10/16 07:36:50;;;;;;;8.63;6.30;;;14.00;99.90;;;14.77;100.00;98162.28;5007227;28;20538;-90
2022/10/16 07:39:19;;;;;;;12.37;3.70;;;14.10;99.90;;;14.77;100.00;98173.63;5006213;28;20460;-89
2022/10/16 07:41:48;;;;;;;10.77;3.30;;;14.10;99.90;;;14.78;100.00;98171.81;5004198;28;20479;-90
2022/10/16 07:44:17;;;;;;;4.63;2.50;;;14.10;99.90;;;14.79;100.00;98181.28;5009022;28;20545;-90
2022/10/16 07:46:46;;;;;;;6.67;2.70;;;14.10;99.90;;;14.80;100.00;98185.53;5013289;28;20490;-90
2022/10/16 07:49:17;;;;;;;12.57;2.50;;;14.10;99.90;;;14.81;100.00;98195.06;5011488;28;20998;-88
2022/10/16 07:51:46;;;;;;;13.87;2.33;;;14.10;99.90;;;14.82;100.00;98196.69;5009631;28;20502;-90
2022/10/16 07:54:15;;;;;;;4.37;2.30;;;14.10;99.90;;;14.82;100.00;98207.22;5012029;28;20931;-90
2022/10/16 07:56:44;;;;;;;6.63;2.60;;;14.10;99.90;;;14.81;100.00;98210.88;5011762;28;20493;-90
2022/10/16 07:59:13;;;;;;;13.53;2.30;;;14.10;99.90;;;14.83;100.00;98212.25;5011783;28;20483;-90
2022/10/16 08:01:43;;;;;;;7.70;2.57;;;14.10;99.90;;;14.85;100.00;98206.81;5007675;28;20459;-91
2022/10/16 08:04:12;;;;;;;4.97;3.10;;;14.20;99.90;;;14.87;100.00;98210.03;5010993;28;20526;-89
2022/10/16 08:06:43;;;;;;;10.93;3.00;;;14.20;99.90;;;14.90;100.00;98220.94;5009146;28;20455;-90
2022/10/16 08:09:11;;;;;;;4.83;3.30;;;14.30;99.90;;;14.91;100.00;98224.38;5004291;28;20467;-91
2022/10/16 08:11:40;;;;;;;6.90;3.80;;;14.30;99.90;;;14.92;100.00;98226.00;5009885;28;20517;-90
2022/10/16 08:14:09;;;;;;;4.20;3.60;;;14.30;99.90;;;14.93;100.00;98225.78;5004469;28;20903;-90
2022/10/16 08:16:40;;;;;;;4.00;3.63;;;14.30;99.90;;;14.96;100.00;98232.47;5005503;28;20487;-90
2022/10/16 08:19:09;;;;;;;17.43;3.50;;;14.30;99.90;;;14.97;100.00;98237.53;5003586;28;20455;-90
2022/10/16 08:21:37;;;;;;;4.40;3.20;;;14.40;99.90;;;14.99;100.00;98239.97;5007229;28;20455;-89
2022/10/16 08:24:09;;;;;;;6.27;3.40;;;14.30;99.90;;;15.01;100.00;98248.44;5006215;28;20582;-90
2022/10/16 08:26:37;;;;;;;6.33;3.47;;;14.30;99.90;;;15.03;100.00;98249.03;5006890;28;20597;-90
2022/10/16 08:29:06;;;;;;;4.97;2.90;;;14.40;99.90;;;15.03;100.00;98262.19;5004527;28;20849;-90
2022/10/16 08:31:35;;;;;;;12.73;3.50;;;14.40;99.90;;;15.03;100.00;98254.28;5004966;28;20950;-90
2022/10/16 08:34:04;;;;;;;13.60;3.13;;;14.40;99.90;;;15.06;100.00;98259.16;5009429;28;20467;-90
2022/10/16 08:36:33;;;;;;;7.23;2.93;;;14.40;99.90;;;15.07;100.00;98252.88;5007822;28;20460;-89
2022/10/16 08:39:02;;;;;;;8.53;2.50;;;14.40;99.90;;;15.07;100.00;98252.88;5004039;28;20522;-91
2022/10/16 08:42:14;;;;;;;6.27;3.60;;;14.40;99.90;;;15.11;100.00;98256.69;5009344;28;20475;-90
2022/10/16 08:45:20;;;;;;;6.60;3.10;;;14.50;99.90;;;15.15;100.00;98268.44;5006861;28;20455;-90
2022/10/16 08:48:09;;;;;;;4.10;3.40;;;14.50;99.90;;;15.17;100.00;98273.50;5007111;28;20573;-90
2022/10/16 08:50:49;;;;;;;12.53;3.70;;;14.60;99.90;;;15.19;100.00;98269.63;5011498;28;20463;-90
2022/10/16 08:53:25;;;;;;;4.73;3.00;;;14.60;99.90;;;15.24;100.00;98279.56;5013630;28;20513;-91
2022/10/16 08:55:55;;;;;;;4.07;3.30;;;14.60;99.90;;;15.26;100.00;98278.31;5010520;28;20901;-91
2022/10/16 08:58:30;;;;;;;10.43;4.00;;;14.60;99.90;;;15.28;100.00;98265.72;5009449;28;20556;-90
2022/10/16 09:01:04;;;;;;;4.07;2.80;;;14.70;99.90;;;15.31;100.00;98262.66;5008773;28;20485;-91
2022/10/16 09:04:22;;;;;;;5.40;3.63;;;14.70;99.90;;;15.34;100.00;98262.22;5007944;28;20590;-91
2022/10/16 09:06:58;;;;;;;12.70;4.10;;;14.70;99.90;;;15.41;100.00;98265.63;4945740;29;21076;-85
2022/10/16 09:09:55;;;;;;;52.07;30.27;;;14.80;99.90;;;15.47;100.00;98269.28;4948361;28;21027;-91
2022/10/16 09:12:34;;;;;;;7.87;4.37;;;14.90;99.90;;;15.52;100.00;98280.81;4994379;28;20474;-90
2022/10/16 09:15:24;;;;;;;4.87;3.23;;;15.00;99.90;;;15.57;100.00;98280.19;5012604;28;20474;-91
2022/10/16 09:18:07;;;;;;;8.27;4.00;;;15.10;99.90;;;15.64;100.00;98280.94;5013288;28;20482;-91
2022/10/16 09:20:52;;;;;;;4.00;3.00;;;15.10;99.90;;;15.70;100.00;98279.28;5006068;28;20514;-91
2022/10/16 09:23:29;;;;;;;5.33;3.13;;;15.30;99.90;;;15.74;100.00;98291.84;5006867;28;20597;-90
2022/10/16 09:26:00;;;;;;;12.90;3.17;;;15.30;99.90;;;15.80;100.00;98298.06;5008774;28;20546;-91
2022/10/16 09:28:29;;;;;;;12.67;3.27;;;15.30;99.90;;;15.84;100.00;98301.91;5011369;28;20467;-90
2022/10/16 09:31:00;;;;;;;4.13;2.87;;;15.30;99.90;;;15.87;100.00;98301.47;5006084;28;20455;-90
2022/10/16 09:33:36;;;;;;;6.60;2.57;;;15.40;99.90;;;15.92;100.00;98304.28;5008496;28;20858;-91
2022/10/16 09:36:07;;;;;;;5.10;3.63;;;15.40;99.90;;;15.97;100.00;98301.78;5012119;28;20471;-90
2022/10/16 09:38:38;;;;;;;5.30;4.80;;;15.50;99.90;;;16.04;100.00;98308.63;5005047;28;20879;-91
2022/10/16 09:41:20;;;;;;;8.40;4.57;;;15.50;99.90;;;16.09;100.00;98300.09;5010092;28;20463;-91
2022/10/16 09:43:55;;;;;;;4.17;3.50;;;15.60;99.90;;;16.15;100.00;98299.22;5011901;28;20490;-90
2022/10/16 09:46:31;;;;;;;3.90;2.90;;;15.70;99.90;;;16.21;100.00;98298.34;5013054;28;20438;-90
2022/10/16 09:49:02;;;;;;;6.07;3.17;;;15.80;99.90;;;16.25;100.00;98294.25;5010043;28;20518;-91
2022/10/16 09:54:24;;;;;;;5.70;3.03;;;15.80;99.90;;;16.35;100.00;98289.28;5006873;28;20475;-90
2022/10/16 09:56:54;;;;;;;10.40;3.67;;;15.90;99.90;;;16.41;100.00;98299.00;5016776;28;20554;-91
2022/10/16 09:59:28;;;;;;;3.33;3.03;;;16.00;99.90;;;16.47;100.00;98297.31;5011692;28;21115;-90
2022/10/16 10:02:05;;;;;;;3.40;3.00;;;16.10;99.90;;;16.51;100.00;98301.94;5014087;28;20570;-90
2022/10/16 10:04:45;;;;;;;7.30;4.07;;;16.20;99.90;;;16.54;100.00;98304.13;5016084;28;20521;-90
2022/10/16 10:07:25;;;;;;;3.37;3.07;;;16.10;99.90;;;16.56;100.00;98294.19;5013384;28;20527;-91
2022/10/16 10:09:57;;;;;;;3.97;3.20;;;16.10;99.90;;;16.63;100.00;98302.03;5012256;28;20993;-90
2022/10/16 10:12:29;;;;;;;5.90;3.30;;;16.20;99.90;;;16.71;100.00;98298.31;5012103;28;20459;-91
2022/10/16 10:15:07;;;;;;;3.30;2.97;;;16.30;99.90;;;16.77;100.00;98307.97;5008042;28;20459;-90
2022/10/16 10:17:49;;;;;;;2.63;2.37;;;16.40;99.90;;;16.83;100.00;98309.78;5015546;28;20469;-90
2022/10/16 10:20:30;;;;;;;4.40;2.67;;;16.50;99.90;;;16.85;100.00;98316.44;5011588;28;20537;-90
2022/10/16 10:23:15;;;;;;;9.23;3.07;;;16.50;99.90;;;16.91;100.00;98307.63;5009318;28;21018;-90
2022/10/16 10:25:58;;;;;;;3.57;2.43;;;16.60;99.90;;;16.96;100.00;98304.31;5014535;28;20851;-90
2022/10/16 10:29:01;;;;;;;4.87;2.30;;;16.60;99.90;;;17.01;100.00;98310.56;5011972;28;20530;-91
2022/10/16 10:31:47;;;;;;;3.43;3.10;;;16.70;99.90;;;17.03;100.00;98295.31;5007699;28;20459;-90
2022/10/16 10:34:53;;;;;;;2.77;2.57;;;16.70;99.90;;;17.04;100.00;98293.47;5012030;28;21023;-90
2022/10/16 10:38:00;;;;;;;2.47;2.27;;;16.70;99.90;;;17.06;100.00;98292.22;5015168;28;20455;-91